createdAt,value
2022-11-27T00:00:35.286Z,16.19
2022-11-27T00:01:35.279Z,16.09
2022-11-27T00:02:39.267Z,16.29
2022-11-27T00:03:35.552Z,16.29
2022-11-27T00:04:35.286Z,16.29
2022-11-27T00:05:35.278Z,16.29
2022-11-27T00:06:35.283Z,16.29
2022-11-27T00:07:35.324Z,16.29
2022-11-27T00:08:35.306Z,16.19
2022-11-27T00:09:35.274Z,16.09
2022-11-27T00:10:35.283Z,16.09
2022-11-27T00:11:35.271Z,16.19
2022-11-27T00:12:35.279Z,16.00
2022-11-27T00:13:35.270Z,15.91
2022-11-27T00:14:35.279Z,16.19
2022-11-27T00:15:35.315Z,15.91
2022-11-27T00:16:35.278Z,15.91
2022-11-27T00:17:35.269Z,16.19
2022-11-27T00:18:35.278Z,15.91
2022-11-27T00:19:35.268Z,15.81
2022-11-27T00:20:35.276Z,15.81
2022-11-27T00:21:35.270Z,15.81
2022-11-27T00:22:35.275Z,15.81
2022-11-27T00:23:35.268Z,15.91
2022-11-27T00:24:35.297Z,15.81
2022-11-27T00:25:35.267Z,15.91
2022-11-27T00:26:38.125Z,15.91
2022-11-27T00:27:35.264Z,15.91
2022-11-27T00:28:35.273Z,15.91
2022-11-27T00:29:35.264Z,15.81
2022-11-27T00:30:35.272Z,15.91
2022-11-27T00:31:35.324Z,15.91
2022-11-27T00:32:35.270Z,15.81
2022-11-27T00:33:35.264Z,16.00
2022-11-27T00:34:35.269Z,15.91
2022-11-27T00:35:35.262Z,15.91
2022-11-27T00:36:35.270Z,15.91
2022-11-27T00:37:35.262Z,15.91
2022-11-27T00:38:38.763Z,15.91
2022-11-27T00:39:35.259Z,15.91
2022-11-27T00:40:35.293Z,16.00
2022-11-27T00:41:35.260Z,15.91
2022-11-27T00:42:35.266Z,16.00
2022-11-27T00:43:43.618Z,16.00
2022-11-27T00:44:35.265Z,15.91
2022-11-27T00:45:35.258Z,15.91
2022-11-27T00:46:35.300Z,16.00
2022-11-27T00:47:35.256Z,16.00
2022-11-27T00:48:35.263Z,16.00
2022-11-27T00:49:35.257Z,16.00
2022-11-27T00:50:35.264Z,16.00
2022-11-27T00:51:35.256Z,16.00
2022-11-27T00:52:35.262Z,16.00
2022-11-27T00:53:35.254Z,16.00
2022-11-27T00:54:35.262Z,16.00
2022-11-27T00:55:35.255Z,16.00
2022-11-27T00:56:35.284Z,16.00
2022-11-27T00:57:35.252Z,16.09
2022-11-27T00:58:35.264Z,15.91
2022-11-27T00:59:35.250Z,16.00
2022-11-27T01:00:35.257Z,15.91
2022-11-27T01:01:35.404Z,16.00
2022-11-27T01:02:35.361Z,16.00
2022-11-27T01:03:35.249Z,16.00
2022-11-27T01:04:35.256Z,15.91
2022-11-27T01:05:35.249Z,16.00
2022-11-27T01:06:35.257Z,16.00
2022-11-27T01:07:35.315Z,16.19
2022-11-27T01:08:35.260Z,16.00
2022-11-27T01:09:35.247Z,15.91
2022-11-27T01:10:35.255Z,16.09
2022-11-27T01:11:35.245Z,16.19
2022-11-27T01:12:35.275Z,16.09
2022-11-27T01:13:35.248Z,16.09
2022-11-27T01:14:35.253Z,16.00
2022-11-27T01:15:35.290Z,16.09
2022-11-27T01:16:35.386Z,16.19
2022-11-27T01:17:35.246Z,16.00
2022-11-27T01:18:35.251Z,16.00
2022-11-27T01:19:35.242Z,16.00
2022-11-27T01:20:35.249Z,16.09
2022-11-27T01:21:35.242Z,16.09
2022-11-27T01:22:35.249Z,16.19
2022-11-27T01:23:35.241Z,16.19
2022-11-27T01:24:35.247Z,16.00
2022-11-27T01:25:35.240Z,16.19
2022-11-27T01:26:35.249Z,16.19
2022-11-27T01:27:35.239Z,16.19
2022-11-27T01:28:35.271Z,16.09
2022-11-27T01:29:35.239Z,16.19
2022-11-27T01:30:35.245Z,16.19
2022-11-27T01:31:35.328Z,16.19
2022-11-27T01:32:35.244Z,16.19
2022-11-27T01:33:35.236Z,16.19
2022-11-27T01:34:35.237Z,16.19
2022-11-27T01:35:35.244Z,16.09
2022-11-27T01:36:35.236Z,16.19
2022-11-27T01:37:35.244Z,16.19
2022-11-27T01:38:35.237Z,16.29
2022-11-27T01:39:35.242Z,16.09
2022-11-27T01:40:35.234Z,16.29
2022-11-27T01:41:35.253Z,16.19
2022-11-27T01:42:35.234Z,16.19
2022-11-27T01:43:35.239Z,16.19
2022-11-27T01:44:35.256Z,16.29
2022-11-27T01:45:35.240Z,16.29
2022-11-27T01:46:35.294Z,16.09
2022-11-27T01:47:35.239Z,16.29
2022-11-27T01:48:35.231Z,16.29
2022-11-27T01:49:35.237Z,16.29
2022-11-27T01:50:35.230Z,16.29
2022-11-27T01:51:35.235Z,16.29
2022-11-27T01:52:35.229Z,16.19
2022-11-27T01:53:35.235Z,16.19
2022-11-27T01:54:35.228Z,16.19
2022-11-27T01:55:35.235Z,16.09
2022-11-27T01:56:35.229Z,16.19
2022-11-27T01:57:35.235Z,16.39
2022-11-27T01:58:35.228Z,16.09
2022-11-27T01:59:35.232Z,16.19
2022-11-27T02:00:35.256Z,15.71
2022-11-27T02:01:35.346Z,15.71
2022-11-27T02:02:35.268Z,15.81
2022-11-27T02:03:35.230Z,15.71
2022-11-27T02:04:35.223Z,15.81
2022-11-27T02:05:35.230Z,15.71
2022-11-27T02:06:35.224Z,15.91
2022-11-27T02:07:35.249Z,15.91
2022-11-27T02:08:35.222Z,15.81
2022-11-27T02:09:35.230Z,15.81
2022-11-27T02:10:35.221Z,15.81
2022-11-27T02:11:35.228Z,15.81
2022-11-27T02:12:35.219Z,15.91
2022-11-27T02:13:35.229Z,15.91
2022-11-27T02:14:35.222Z,15.91
2022-11-27T02:15:35.227Z,15.91
2022-11-27T02:16:35.290Z,15.91
2022-11-27T02:17:35.226Z,15.91
2022-11-27T02:18:35.219Z,15.91
2022-11-27T02:19:35.224Z,16.00
2022-11-27T02:20:35.216Z,15.81
2022-11-27T02:21:35.225Z,16.00
2022-11-27T02:22:35.217Z,15.81
2022-11-27T02:23:35.222Z,15.91
2022-11-27T02:24:35.216Z,16.00
2022-11-27T02:25:35.221Z,15.81
2022-11-27T02:26:35.217Z,16.00
2022-11-27T02:27:35.221Z,15.91
2022-11-27T02:28:35.213Z,15.91
2022-11-27T02:29:35.220Z,16.00
2022-11-27T02:30:35.214Z,15.91
2022-11-27T02:31:35.296Z,15.91
2022-11-27T02:32:35.218Z,16.00
2022-11-27T02:33:35.221Z,15.91
2022-11-27T02:34:35.211Z,15.81
2022-11-27T02:35:35.221Z,15.91
2022-11-27T02:36:35.209Z,15.91
2022-11-27T02:37:35.219Z,16.00
2022-11-27T02:38:35.209Z,15.71
2022-11-27T02:39:35.216Z,15.81
2022-11-27T02:40:35.209Z,15.71
2022-11-27T02:41:35.214Z,15.71
2022-11-27T02:42:35.326Z,15.81
2022-11-27T02:43:35.219Z,15.91
2022-11-27T02:44:35.205Z,15.71
2022-11-27T02:45:35.217Z,15.61
2022-11-27T02:46:35.279Z,15.91
2022-11-27T02:47:35.213Z,15.91
2022-11-27T02:48:35.210Z,16.00
2022-11-27T02:49:35.212Z,15.91
2022-11-27T02:50:35.204Z,15.71
2022-11-27T02:51:35.213Z,15.91
2022-11-27T02:52:35.206Z,15.91
2022-11-27T02:53:35.211Z,15.71
2022-11-27T02:54:35.202Z,15.71
2022-11-27T02:55:35.209Z,15.81
2022-11-27T02:56:35.201Z,15.81
2022-11-27T02:57:35.208Z,15.91
2022-11-27T02:58:35.325Z,15.81
2022-11-27T02:59:35.207Z,15.91
2022-11-27T03:00:35.204Z,16.00
2022-11-27T03:01:35.253Z,15.91
2022-11-27T03:02:35.281Z,15.81
2022-11-27T03:03:35.206Z,15.81
2022-11-27T03:04:35.199Z,15.81
2022-11-27T03:05:35.206Z,15.91
2022-11-27T03:06:35.197Z,15.71
2022-11-27T03:07:35.268Z,15.81
2022-11-27T03:08:35.198Z,15.81
2022-11-27T03:09:35.205Z,15.71
2022-11-27T03:10:35.196Z,15.52
2022-11-27T03:11:35.201Z,16.00
2022-11-27T03:12:35.197Z,15.61
2022-11-27T03:13:35.201Z,15.91
2022-11-27T03:14:35.309Z,15.81
2022-11-27T03:15:35.200Z,15.52
2022-11-27T03:16:35.275Z,15.61
2022-11-27T03:17:35.199Z,15.52
2022-11-27T03:18:35.191Z,15.52
2022-11-27T03:19:35.200Z,15.61
2022-11-27T03:20:35.192Z,15.52
2022-11-27T03:21:35.201Z,15.52
2022-11-27T03:22:35.191Z,15.71
2022-11-27T03:23:35.225Z,15.71
2022-11-27T03:24:35.190Z,15.71
2022-11-27T03:25:35.197Z,15.52
2022-11-27T03:26:35.188Z,15.71
2022-11-27T03:27:35.200Z,15.71
2022-11-27T03:28:35.188Z,15.61
2022-11-27T03:29:35.196Z,15.61
2022-11-27T03:30:35.309Z,15.81
2022-11-27T03:31:35.240Z,15.52
2022-11-27T03:32:35.186Z,15.61
2022-11-27T03:33:35.201Z,15.61
2022-11-27T03:34:35.187Z,15.71
2022-11-27T03:35:35.193Z,15.61
2022-11-27T03:36:35.185Z,15.61
2022-11-27T03:37:35.191Z,15.52
2022-11-27T03:38:35.184Z,15.61
2022-11-27T03:39:35.189Z,15.42
2022-11-27T03:40:35.183Z,15.42
2022-11-27T03:41:35.191Z,15.52
2022-11-27T03:42:35.181Z,15.52
2022-11-27T03:43:35.191Z,15.61
2022-11-27T03:44:35.182Z,15.52
2022-11-27T03:45:35.189Z,15.52
2022-11-27T03:46:35.368Z,15.52
2022-11-27T03:47:35.320Z,15.42
2022-11-27T03:48:35.178Z,15.42
2022-11-27T03:49:35.186Z,15.52
2022-11-27T03:50:35.180Z,15.52
2022-11-27T03:51:35.185Z,15.52
2022-11-27T03:52:35.176Z,15.42
2022-11-27T03:53:35.184Z,15.61
2022-11-27T03:54:35.177Z,15.52
2022-11-27T03:55:35.184Z,15.61
2022-11-27T03:56:35.175Z,15.61
2022-11-27T03:57:35.183Z,15.42
2022-11-27T03:58:35.175Z,15.61
2022-11-27T03:59:35.182Z,15.52
2022-11-27T04:00:35.174Z,15.61
2022-11-27T04:01:35.236Z,15.12
2022-11-27T04:02:35.288Z,15.12
2022-11-27T04:03:35.254Z,15.12
2022-11-27T04:04:35.172Z,15.03
2022-11-27T04:05:35.183Z,15.12
2022-11-27T04:06:35.172Z,15.12
2022-11-27T04:07:35.284Z,15.12
2022-11-27T04:08:35.170Z,15.12
2022-11-27T04:09:35.180Z,15.12
2022-11-27T04:10:35.170Z,15.12
2022-11-27T04:11:35.176Z,15.12
2022-11-27T04:12:35.170Z,15.03
2022-11-27T04:13:35.176Z,15.03
2022-11-27T04:14:35.171Z,15.03
2022-11-27T04:15:35.175Z,15.03
2022-11-27T04:16:35.329Z,15.12
2022-11-27T04:17:35.174Z,15.22
2022-11-27T04:18:35.287Z,15.42
2022-11-27T04:19:35.172Z,15.12
2022-11-27T04:20:35.166Z,15.42
2022-11-27T04:21:35.171Z,15.52
2022-11-27T04:22:35.165Z,15.22
2022-11-27T04:23:35.171Z,15.42
2022-11-27T04:24:35.162Z,15.22
2022-11-27T04:25:35.170Z,15.42
2022-11-27T04:26:35.163Z,15.42
2022-11-27T04:27:35.169Z,15.32
2022-11-27T04:28:35.160Z,15.32
2022-11-27T04:29:35.168Z,15.32
2022-11-27T04:30:35.160Z,15.42
2022-11-27T04:31:35.208Z,15.32
2022-11-27T04:32:35.162Z,15.22
2022-11-27T04:33:35.167Z,15.22
2022-11-27T04:34:35.281Z,15.22
2022-11-27T04:35:35.165Z,15.32
2022-11-27T04:36:39.269Z,15.32
2022-11-27T04:37:35.166Z,15.22
2022-11-27T04:38:35.160Z,15.32
2022-11-27T04:39:35.166Z,15.32
2022-11-27T04:40:35.156Z,15.22
2022-11-27T04:41:35.169Z,15.22
2022-11-27T04:42:35.156Z,15.22
2022-11-27T04:43:35.162Z,15.32
2022-11-27T04:44:35.156Z,15.22
2022-11-27T04:45:35.161Z,15.32
2022-11-27T04:46:35.197Z,15.32
2022-11-27T04:47:35.165Z,15.22
2022-11-27T04:48:35.152Z,15.12
2022-11-27T04:49:35.161Z,15.32
2022-11-27T04:50:35.266Z,15.22
2022-11-27T04:51:35.158Z,15.32
2022-11-27T04:52:35.151Z,15.32
2022-11-27T04:53:35.163Z,15.03
2022-11-27T04:54:35.149Z,15.22
2022-11-27T04:55:35.156Z,15.32
2022-11-27T04:56:35.147Z,15.42
2022-11-27T04:57:35.160Z,15.42
2022-11-27T04:58:35.148Z,15.22
2022-11-27T04:59:35.154Z,14.94
2022-11-27T05:00:35.217Z,14.94
2022-11-27T05:01:35.156Z,14.94
2022-11-27T05:02:35.198Z,15.42
2022-11-27T05:03:35.154Z,14.94
2022-11-27T05:04:35.145Z,14.84
2022-11-27T05:05:35.152Z,15.03
2022-11-27T05:06:35.260Z,14.94
2022-11-27T05:07:35.272Z,14.94
2022-11-27T05:08:35.143Z,14.94
2022-11-27T05:09:35.150Z,14.94
2022-11-27T05:10:35.144Z,14.94
2022-11-27T05:11:35.147Z,15.03
2022-11-27T05:12:35.141Z,15.03
2022-11-27T05:13:35.155Z,14.94
2022-11-27T05:14:35.141Z,14.94
2022-11-27T05:15:35.148Z,14.94
2022-11-27T05:16:35.250Z,15.03
2022-11-27T05:17:35.150Z,15.03
2022-11-27T05:18:35.139Z,15.03
2022-11-27T05:19:35.147Z,14.94
2022-11-27T05:20:35.138Z,15.03
2022-11-27T05:21:35.146Z,15.03
2022-11-27T05:22:35.251Z,15.03
2022-11-27T05:23:35.143Z,15.03
2022-11-27T05:24:35.136Z,14.94
2022-11-27T05:25:35.143Z,15.12
2022-11-27T05:26:35.135Z,15.12
2022-11-27T05:27:35.141Z,15.12
2022-11-27T05:28:35.136Z,15.12
2022-11-27T05:29:35.142Z,15.03
2022-11-27T05:30:35.136Z,15.03
2022-11-27T05:31:35.216Z,15.03
2022-11-27T05:32:35.132Z,15.03
2022-11-27T05:33:35.145Z,15.32
2022-11-27T05:34:35.131Z,15.32
2022-11-27T05:35:35.138Z,15.22
2022-11-27T05:36:35.131Z,15.32
2022-11-27T05:37:35.137Z,15.03
2022-11-27T05:38:35.253Z,15.12
2022-11-27T05:39:35.137Z,15.03
2022-11-27T05:40:35.129Z,15.22
2022-11-27T05:41:35.136Z,15.22
2022-11-27T05:42:35.129Z,15.22
2022-11-27T05:43:35.135Z,15.32
2022-11-27T05:44:35.128Z,15.22
2022-11-27T05:45:35.134Z,15.03
2022-11-27T05:46:35.147Z,15.03
2022-11-27T05:47:35.134Z,15.22
2022-11-27T05:48:35.124Z,15.12
2022-11-27T05:49:35.138Z,15.32
2022-11-27T05:50:35.133Z,15.22
2022-11-27T05:51:35.124Z,15.32
2022-11-27T05:52:35.132Z,15.12
2022-11-27T05:53:35.123Z,15.32
2022-11-27T05:54:35.250Z,15.12
2022-11-27T05:55:35.125Z,15.22
2022-11-27T05:56:35.129Z,15.12
2022-11-27T05:57:35.124Z,15.22
2022-11-27T05:58:35.128Z,15.42
2022-11-27T05:59:35.121Z,15.22
2022-11-27T06:00:35.126Z,15.22
2022-11-27T06:01:35.183Z,15.32
2022-11-27T06:02:35.269Z,15.12
2022-11-27T06:03:35.221Z,15.22
2022-11-27T06:04:35.126Z,15.22
2022-11-27T06:05:35.117Z,15.32
2022-11-27T06:06:35.126Z,15.22
2022-11-27T06:07:35.205Z,15.32
2022-11-27T06:08:35.123Z,15.32
2022-11-27T06:09:35.116Z,15.22
2022-11-27T06:10:35.245Z,15.22
2022-11-27T06:11:35.115Z,15.22
2022-11-27T06:12:35.121Z,15.22
2022-11-27T06:13:35.118Z,14.84
2022-11-27T06:14:35.122Z,15.32
2022-11-27T06:15:35.114Z,14.94
2022-11-27T06:16:35.157Z,15.12
2022-11-27T06:17:35.112Z,15.03
2022-11-27T06:18:35.120Z,15.12
2022-11-27T06:19:35.114Z,14.94
2022-11-27T06:20:38.424Z,14.94
2022-11-27T06:21:35.128Z,15.12
2022-11-27T06:22:35.117Z,15.22
2022-11-27T06:23:35.109Z,14.94
2022-11-27T06:24:35.116Z,14.84
2022-11-27T06:25:35.110Z,14.94
2022-11-27T06:26:35.232Z,15.03
2022-11-27T06:27:35.108Z,15.03
2022-11-27T06:28:35.115Z,15.12
2022-11-27T06:29:35.108Z,15.12
2022-11-27T06:30:35.114Z,15.12
2022-11-27T06:31:35.194Z,15.03
2022-11-27T06:32:35.113Z,15.12
2022-11-27T06:33:35.106Z,15.12
2022-11-27T06:34:35.113Z,15.03
2022-11-27T06:35:35.106Z,15.03
2022-11-27T06:36:35.112Z,15.03
2022-11-27T06:37:35.103Z,15.12
2022-11-27T06:38:35.111Z,15.03
2022-11-27T06:39:35.104Z,15.03
2022-11-27T06:40:35.110Z,15.03
2022-11-27T06:41:35.104Z,14.84
2022-11-27T06:42:35.236Z,15.12
2022-11-27T06:43:35.100Z,15.03
2022-11-27T06:44:35.109Z,15.12
2022-11-27T06:45:35.161Z,15.12
2022-11-27T06:46:35.108Z,15.12
2022-11-27T06:47:35.100Z,15.12
2022-11-27T06:48:35.108Z,15.12
2022-11-27T06:49:35.099Z,15.12
2022-11-27T06:50:35.107Z,14.94
2022-11-27T06:51:35.097Z,14.94
2022-11-27T06:52:40.207Z,14.94
2022-11-27T06:53:35.096Z,14.94
2022-11-27T06:54:35.107Z,15.03
2022-11-27T06:55:35.096Z,14.94
2022-11-27T06:56:35.102Z,14.94
2022-11-27T06:57:35.095Z,14.94
2022-11-27T06:58:35.689Z,14.94
2022-11-27T06:59:35.099Z,14.94
2022-11-27T07:00:35.131Z,14.94
2022-11-27T07:01:35.198Z,14.94
2022-11-27T07:02:35.168Z,14.94
2022-11-27T07:03:35.092Z,14.94
2022-11-27T07:04:35.102Z,14.94
2022-11-27T07:05:35.092Z,14.94
2022-11-27T07:06:35.099Z,14.84
2022-11-27T07:07:37.579Z,14.94
2022-11-27T07:08:35.097Z,14.94
2022-11-27T07:09:35.090Z,15.03
2022-11-27T07:10:35.099Z,14.84
2022-11-27T07:11:35.089Z,14.84
2022-11-27T07:12:35.096Z,14.74
2022-11-27T07:13:35.089Z,14.74
2022-11-27T07:14:35.212Z,14.74
2022-11-27T07:15:35.086Z,14.84
2022-11-27T07:16:35.152Z,14.84
2022-11-27T07:17:35.086Z,14.74
2022-11-27T07:18:35.093Z,14.84
2022-11-27T07:19:35.084Z,14.84
2022-11-27T07:20:35.092Z,14.84
2022-11-27T07:21:35.086Z,14.84
2022-11-27T07:22:35.092Z,14.75
2022-11-27T07:23:35.085Z,14.84
2022-11-27T07:24:35.090Z,14.84
2022-11-27T07:25:35.083Z,14.74
2022-11-27T07:26:35.090Z,14.74
2022-11-27T07:27:35.082Z,14.84
2022-11-27T07:28:35.088Z,14.84
2022-11-27T07:29:35.082Z,14.94
2022-11-27T07:30:35.202Z,14.94
2022-11-27T07:31:35.185Z,14.94
2022-11-27T07:32:35.087Z,15.03
2022-11-27T07:33:35.080Z,15.03
2022-11-27T07:34:35.087Z,14.84
2022-11-27T07:35:35.079Z,14.94
2022-11-27T07:36:35.085Z,14.84
2022-11-27T07:37:35.078Z,14.94
2022-11-27T07:38:35.086Z,14.84
2022-11-27T07:40:01.014Z,15.03
2022-11-27T07:40:35.083Z,14.94
2022-11-27T07:41:35.076Z,14.84
2022-11-27T07:42:39.231Z,14.94
2022-11-27T07:43:35.076Z,15.03
2022-11-27T07:44:35.081Z,14.84
2022-11-27T07:45:35.123Z,15.03
2022-11-27T07:46:35.196Z,15.03
2022-11-27T07:47:35.074Z,14.84
2022-11-27T07:48:35.081Z,15.12
2022-11-27T07:49:35.076Z,14.74
2022-11-27T07:50:35.079Z,14.84
2022-11-27T07:51:35.072Z,15.03
2022-11-27T07:52:40.777Z,14.94
2022-11-27T07:53:35.071Z,15.03
2022-11-27T07:54:35.078Z,15.03
2022-11-27T07:55:35.070Z,14.94
2022-11-27T07:56:35.075Z,14.94
2022-11-27T07:57:35.071Z,14.84
2022-11-27T07:58:35.077Z,14.74
2022-11-27T07:59:35.067Z,14.84
2022-11-27T08:00:35.135Z,14.84
2022-11-27T08:01:35.117Z,14.74
2022-11-27T08:02:35.191Z,14.74
2022-11-27T08:03:35.069Z,14.74
2022-11-27T08:04:35.118Z,14.74
2022-11-27T08:05:35.064Z,14.74
2022-11-27T08:06:35.073Z,14.64
2022-11-27T08:07:35.119Z,14.64
2022-11-27T08:08:35.071Z,14.74
2022-11-27T08:09:35.063Z,14.84
2022-11-27T08:10:35.072Z,14.64
2022-11-27T08:11:35.063Z,14.64
2022-11-27T08:12:35.069Z,14.74
2022-11-27T08:13:35.063Z,14.64
2022-11-27T08:14:35.069Z,14.64
2022-11-27T08:15:35.060Z,14.74
2022-11-27T08:16:35.206Z,14.64
2022-11-27T08:17:35.064Z,14.74
2022-11-27T08:18:35.186Z,14.64
2022-11-27T08:19:35.061Z,14.64
2022-11-27T08:20:35.067Z,14.64
2022-11-27T08:21:35.059Z,14.74
2022-11-27T08:22:35.067Z,14.74
2022-11-27T08:23:35.057Z,14.74
2022-11-27T08:24:35.065Z,14.74
2022-11-27T08:25:35.057Z,14.64
2022-11-27T08:26:35.064Z,14.64
2022-11-27T08:27:35.055Z,14.64
2022-11-27T08:28:35.063Z,14.74
2022-11-27T08:29:35.055Z,14.64
2022-11-27T08:30:35.062Z,14.74
2022-11-27T08:31:35.099Z,14.74
2022-11-27T08:32:35.060Z,14.74
2022-11-27T08:33:35.055Z,14.64
2022-11-27T08:34:35.178Z,14.74
2022-11-27T08:35:35.057Z,14.84
2022-11-27T08:36:35.059Z,14.74
2022-11-27T08:37:35.051Z,14.54
2022-11-27T08:38:35.059Z,14.45
2022-11-27T08:39:35.050Z,14.74
2022-11-27T08:40:35.060Z,14.74
2022-11-27T08:41:35.050Z,14.74
2022-11-27T08:42:35.062Z,14.64
2022-11-27T08:43:35.058Z,14.74
2022-11-27T08:44:35.055Z,14.74
2022-11-27T08:45:35.073Z,14.74
2022-11-27T08:46:35.055Z,14.64
2022-11-27T08:47:35.051Z,14.74
2022-11-27T08:48:35.055Z,14.54
2022-11-27T08:49:36.210Z,14.74
2022-11-27T08:50:35.173Z,14.54
2022-11-27T08:51:35.046Z,14.64
2022-11-27T08:52:35.053Z,14.54
2022-11-27T08:53:35.046Z,14.74
2022-11-27T08:54:35.051Z,14.74
2022-11-27T08:55:35.045Z,14.45
2022-11-27T08:56:35.050Z,14.54
2022-11-27T08:57:35.074Z,14.54
2022-11-27T08:58:35.050Z,14.74
2022-11-27T08:59:35.041Z,14.45
2022-11-27T09:00:35.099Z,14.54
2022-11-27T09:01:35.161Z,14.45
2022-11-27T09:02:35.048Z,14.54
2022-11-27T09:03:35.064Z,14.74
2022-11-27T09:04:35.106Z,14.45
2022-11-27T09:05:35.039Z,14.45
2022-11-27T09:06:35.163Z,14.45
2022-11-27T09:07:35.162Z,14.54
2022-11-27T09:08:35.047Z,14.25
2022-11-27T09:09:35.038Z,14.54
2022-11-27T09:10:35.045Z,14.54
2022-11-27T09:11:35.037Z,14.54
2022-11-27T09:12:38.236Z,14.25
2022-11-27T09:13:35.036Z,14.25
2022-11-27T09:14:35.044Z,14.54
2022-11-27T09:15:35.034Z,14.54
2022-11-27T09:16:35.076Z,14.45
2022-11-27T09:17:35.039Z,14.54
2022-11-27T09:18:35.042Z,14.25
2022-11-27T09:19:35.045Z,14.45
2022-11-27T09:20:35.040Z,14.16
2022-11-27T09:21:35.036Z,14.25
2022-11-27T09:22:35.164Z,14.25
2022-11-27T09:23:35.031Z,14.25
2022-11-27T09:24:35.039Z,14.16
2022-11-27T09:25:35.031Z,14.25
2022-11-27T09:26:35.040Z,14.17
2022-11-27T09:27:35.030Z,14.25
2022-11-27T09:28:35.036Z,14.16
2022-11-27T09:29:35.029Z,14.25
2022-11-27T09:30:35.037Z,14.25
2022-11-27T09:31:35.065Z,14.25
2022-11-27T09:32:35.035Z,14.25
2022-11-27T09:33:35.026Z,14.16
2022-11-27T09:34:37.648Z,14.25
2022-11-27T09:35:35.096Z,14.25
2022-11-27T09:36:35.041Z,14.16
2022-11-27T09:37:35.033Z,14.35
2022-11-27T09:38:35.163Z,14.25
2022-11-27T09:39:35.024Z,14.16
2022-11-27T09:40:35.031Z,14.25
2022-11-27T09:41:35.024Z,14.35
2022-11-27T09:42:35.035Z,14.35
2022-11-27T09:43:35.023Z,14.16
2022-11-27T09:44:35.028Z,14.16
2022-11-27T09:45:35.120Z,14.25
2022-11-27T09:46:35.030Z,14.25
2022-11-27T09:47:38.480Z,14.25
2022-11-27T09:48:35.027Z,14.35
2022-11-27T09:49:35.020Z,14.25
2022-11-27T09:50:35.028Z,14.16
2022-11-27T09:51:35.019Z,14.25
2022-11-27T09:52:35.026Z,14.25
2022-11-27T09:53:35.019Z,14.35
2022-11-27T09:54:35.145Z,14.35
2022-11-27T09:55:35.018Z,14.25
2022-11-27T09:56:35.030Z,14.25
2022-11-27T09:57:35.017Z,14.16
2022-11-27T09:58:35.023Z,14.16
2022-11-27T09:59:35.015Z,14.25
2022-11-27T10:00:35.026Z,14.25
2022-11-27T10:01:44.121Z,14.25
2022-11-27T10:02:35.174Z,14.25
2022-11-27T10:03:35.014Z,14.35
2022-11-27T10:04:58.016Z,14.25
2022-11-27T10:05:35.013Z,14.35
2022-11-27T10:06:35.016Z,14.25
2022-11-27T10:07:35.186Z,14.25
2022-11-27T10:08:35.012Z,14.25
2022-11-27T10:09:35.019Z,14.35
2022-11-27T10:10:35.130Z,14.25
2022-11-27T10:11:35.019Z,14.16
2022-11-27T10:12:35.012Z,14.25
2022-11-27T10:13:35.017Z,14.45
2022-11-27T10:14:35.014Z,14.16
2022-11-27T10:15:35.089Z,14.16
2022-11-27T10:16:35.089Z,14.45
2022-11-27T10:17:35.056Z,14.16
2022-11-27T10:18:35.009Z,14.25
2022-11-27T10:19:35.014Z,14.25
2022-11-27T10:20:35.008Z,14.45
2022-11-27T10:21:35.013Z,14.25
2022-11-27T10:22:35.157Z,14.54
2022-11-27T10:23:35.019Z,14.54
2022-11-27T10:24:35.006Z,14.45
2022-11-27T10:25:35.014Z,14.45
2022-11-27T10:26:35.127Z,14.54
2022-11-27T10:27:35.014Z,14.54
2022-11-27T10:28:35.004Z,14.54
2022-11-27T10:29:35.011Z,14.64
2022-11-27T10:30:35.003Z,14.54
2022-11-27T10:31:35.061Z,14.45
2022-11-27T10:33:35.008Z,14.54
2022-11-27T10:34:35.000Z,14.45
2022-11-27T10:35:35.006Z,14.54
2022-11-27T10:36:34.999Z,14.54
2022-11-27T10:37:35.007Z,14.74
2022-11-27T10:38:34.999Z,14.54
2022-11-27T10:39:35.006Z,14.74
2022-11-27T10:40:34.997Z,14.45
2022-11-27T10:41:48.636Z,14.74
2022-11-27T10:42:35.114Z,14.54
2022-11-27T10:43:35.005Z,14.54
2022-11-27T10:44:35.005Z,14.74
2022-11-27T10:45:35.010Z,14.54
2022-11-27T10:46:34.996Z,14.45
2022-11-27T10:47:35.003Z,14.64
2022-11-27T10:48:34.995Z,14.64
2022-11-27T10:49:35.004Z,14.64
2022-11-27T10:50:34.997Z,14.74
2022-11-27T10:51:35.000Z,14.74
2022-11-27T10:52:34.995Z,14.64
2022-11-27T10:53:34.998Z,14.75
2022-11-27T10:54:34.992Z,14.64
2022-11-27T10:55:34.998Z,14.74
2022-11-27T10:56:34.990Z,14.74
2022-11-27T10:57:34.999Z,14.75
2022-11-27T10:58:35.108Z,14.64
2022-11-27T10:59:35.148Z,14.64
2022-11-27T11:00:34.989Z,14.74
2022-11-27T11:01:35.109Z,14.64
2022-11-27T11:02:35.082Z,14.64
2022-11-27T11:03:34.995Z,14.64
2022-11-27T11:04:39.018Z,14.64
2022-11-27T11:05:50.992Z,14.64
2022-11-27T11:06:34.989Z,14.64
2022-11-27T11:07:35.079Z,14.64
2022-11-27T11:08:34.986Z,14.74
2022-11-27T11:09:35.004Z,14.64
2022-11-27T11:10:34.988Z,14.64
2022-11-27T11:11:34.990Z,14.64
2022-11-27T11:12:34.988Z,14.64
2022-11-27T11:13:34.990Z,14.64
2022-11-27T11:14:35.109Z,14.64
2022-11-27T11:15:34.990Z,14.84
2022-11-27T11:16:35.896Z,14.74
2022-11-27T11:17:35.129Z,14.64
2022-11-27T11:18:34.985Z,14.74
2022-11-27T11:19:34.989Z,14.64
2022-11-27T11:20:34.985Z,14.74
2022-11-27T11:21:34.989Z,14.74
2022-11-27T11:22:34.980Z,14.84
2022-11-27T11:23:34.988Z,14.84
2022-11-27T11:24:34.978Z,14.94
2022-11-27T11:25:34.987Z,15.03
2022-11-27T11:26:34.979Z,14.94
2022-11-27T11:27:34.985Z,15.03
2022-11-27T11:28:39.384Z,15.03
2022-11-27T11:29:34.984Z,15.03
2022-11-27T11:30:35.092Z,15.03
2022-11-27T11:31:35.081Z,14.84
2022-11-27T11:32:34.978Z,15.03
2022-11-27T11:33:34.984Z,15.12
2022-11-27T11:34:34.988Z,14.84
2022-11-27T11:35:34.986Z,15.03
2022-11-27T11:36:34.975Z,14.84
2022-11-27T11:37:34.986Z,14.84
2022-11-27T11:38:34.973Z,14.84
2022-11-27T11:39:34.981Z,14.84
2022-11-27T11:40:34.971Z,15.03
2022-11-27T11:41:34.989Z,15.03
2022-11-27T11:42:34.977Z,15.12
2022-11-27T11:43:34.977Z,14.84
2022-11-27T11:44:34.971Z,15.03
2022-11-27T11:45:35.183Z,15.03
2022-11-27T11:46:35.175Z,15.03
2022-11-27T11:47:34.975Z,14.84
2022-11-27T11:48:34.973Z,15.12
2022-11-27T11:49:34.976Z,15.12
2022-11-27T11:50:34.968Z,14.84
2022-11-27T11:51:34.974Z,14.84
2022-11-27T11:52:34.967Z,14.84
2022-11-27T11:53:34.980Z,14.84
2022-11-27T11:54:34.968Z,14.84
2022-11-27T11:55:34.972Z,14.84
2022-11-27T11:56:34.966Z,14.84
2022-11-27T11:57:34.974Z,14.84
2022-11-27T11:58:34.965Z,15.03
2022-11-27T11:59:34.975Z,14.74
2022-11-27T12:00:48.649Z,14.74
2022-11-27T12:01:34.972Z,15.03
2022-11-27T12:02:35.142Z,14.74
2022-11-27T12:03:34.970Z,14.84
2022-11-27T12:04:35.009Z,14.94
2022-11-27T12:05:34.977Z,14.94
2022-11-27T12:06:34.961Z,14.94
2022-11-27T12:07:35.027Z,14.94
2022-11-27T12:08:34.960Z,14.94
2022-11-27T12:09:34.967Z,14.94
2022-11-27T12:10:34.960Z,15.12
2022-11-27T12:11:34.965Z,15.03
2022-11-27T12:12:34.960Z,15.03
2022-11-27T12:13:34.967Z,14.84
2022-11-27T12:14:34.956Z,15.12
2022-11-27T12:15:34.964Z,15.12
2022-11-27T12:16:35.017Z,15.12
2022-11-27T12:17:34.963Z,15.12
2022-11-27T12:18:35.075Z,15.03
2022-11-27T12:19:34.964Z,15.12
2022-11-27T12:20:34.958Z,15.03
2022-11-27T12:21:34.998Z,15.12
2022-11-27T12:22:34.955Z,15.22
2022-11-27T12:23:34.963Z,15.12
2022-11-27T12:24:34.957Z,15.03
2022-11-27T12:25:34.964Z,15.03
2022-11-27T12:26:34.953Z,15.03
2022-11-27T12:27:34.960Z,15.03
2022-11-27T12:28:34.952Z,15.03
2022-11-27T12:29:34.959Z,15.03
2022-11-27T12:30:34.950Z,15.03
2022-11-27T12:31:34.976Z,15.03
2022-11-27T12:32:34.949Z,15.12
2022-11-27T12:33:34.957Z,14.84
2022-11-27T12:34:35.062Z,15.12
2022-11-27T12:35:34.956Z,15.12
2022-11-27T12:36:34.948Z,14.94
2022-11-27T12:37:34.954Z,14.84
2022-11-27T12:38:34.947Z,15.03
2022-11-27T12:39:34.953Z,15.12
2022-11-27T12:40:34.946Z,14.94
2022-11-27T12:41:34.957Z,15.03
2022-11-27T12:42:34.946Z,15.22
2022-11-27T12:43:34.952Z,15.12
2022-11-27T12:44:34.946Z,15.22
2022-11-27T12:45:34.979Z,15.22
2022-11-27T12:46:34.945Z,15.12
2022-11-27T12:47:38.812Z,15.22
2022-11-27T12:48:34.942Z,15.32
2022-11-27T12:49:34.949Z,14.94
2022-11-27T12:50:35.057Z,15.22
2022-11-27T12:51:34.949Z,15.22
2022-11-27T12:52:34.941Z,15.32
2022-11-27T12:53:34.948Z,15.32